createdAt,value
2023-03-21T00:01:52.954Z,32.00
2023-03-21T00:04:20.910Z,32.90
2023-03-21T00:06:47.706Z,30.50
2023-03-21T00:09:14.530Z,32.33
2023-03-21T00:11:41.785Z,32.53
2023-03-21T00:14:09.280Z,32.33
2023-03-21T00:16:36.740Z,32.15
2023-03-21T00:19:10.153Z,32.85
2023-03-21T00:21:51.883Z,32.78
2023-03-21T00:24:23.441Z,32.65
2023-03-21T00:26:51.228Z,33.05
2023-03-21T00:29:19.250Z,34.38
2023-03-21T00:35:40.778Z,35.22
2023-03-21T00:38:01.222Z,32.78
2023-03-21T00:41:31.731Z,32.80
2023-03-21T00:44:03.244Z,33.85
2023-03-21T00:47:00.839Z,35.33
2023-03-21T00:49:56.675Z,35.85
2023-03-21T00:59:34.137Z,34.97
2023-03-21T01:02:01.583Z,32.67
2023-03-21T01:04:46.656Z,33.55
2023-03-21T01:07:35.550Z,32.92
2023-03-21T01:10:21.243Z,33.00
2023-03-21T01:18:59.910Z,32.05
2023-03-21T01:21:26.693Z,33.30
2023-03-21T01:23:53.259Z,33.95
2023-03-21T01:26:20.516Z,32.97
2023-03-21T01:28:47.120Z,33.13
2023-03-21T01:31:16.013Z,32.97
2023-03-21T01:33:43.171Z,32.78
2023-03-21T01:36:15.894Z,32.03
2023-03-21T01:38:44.647Z,31.80
2023-03-21T01:41:42.341Z,32.33
2023-03-21T01:44:16.215Z,32.17
2023-03-21T01:46:51.784Z,32.67
2023-03-21T01:49:34.128Z,32.55
2023-03-21T01:52:13.123Z,31.45
2023-03-21T01:54:43.521Z,31.25
2023-03-21T01:57:14.420Z,30.58
2023-03-21T01:59:45.160Z,31.30
2023-03-21T02:02:17.820Z,31.38
2023-03-21T02:04:56.026Z,30.92
2023-03-21T02:07:29.271Z,30.33
2023-03-21T02:09:57.032Z,29.45
2023-03-21T02:12:24.258Z,30.60
2023-03-21T02:14:52.846Z,30.88
2023-03-21T02:17:35.278Z,30.95
2023-03-21T02:20:40.237Z,30.90
2023-03-21T02:23:43.345Z,30.05
2023-03-21T02:26:23.352Z,31.35
2023-03-21T02:29:04.142Z,30.42
2023-03-21T02:31:51.910Z,32.05
2023-03-21T02:34:43.195Z,31.27
2023-03-21T02:37:21.396Z,32.53
2023-03-21T02:39:55.310Z,32.00
2023-03-21T02:42:25.114Z,33.95
2023-03-21T02:45:11.271Z,32.55
2023-03-21T02:47:59.729Z,33.17
2023-03-21T02:50:34.090Z,33.85
2023-03-21T02:53:03.846Z,34.83
2023-03-21T02:55:33.066Z,33.33
2023-03-21T02:58:12.277Z,35.38
2023-03-21T03:00:40.071Z,35.75
2023-03-21T03:03:10.503Z,36.60
2023-03-21T03:05:46.989Z,36.55
2023-03-21T03:08:24.053Z,35.60
2023-03-21T03:11:12.583Z,35.83
2023-03-21T03:13:51.679Z,36.60
2023-03-21T03:16:36.655Z,35.63
2023-03-21T03:19:07.898Z,37.40
2023-03-21T03:21:44.125Z,35.92
2023-03-21T03:24:38.563Z,35.92
2023-03-21T03:27:12.041Z,37.63
2023-03-21T03:29:41.705Z,35.40
2023-03-21T03:32:13.521Z,37.50
2023-03-21T03:34:44.838Z,35.75
2023-03-21T03:37:15.644Z,36.05
2023-03-21T03:40:06.867Z,36.13
2023-03-21T03:42:40.634Z,37.40
2023-03-21T03:45:08.278Z,34.28
2023-03-21T03:47:55.960Z,35.35
2023-03-21T03:50:23.186Z,36.65
2023-03-21T03:52:59.854Z,35.33
2023-03-21T03:55:34.331Z,36.05
2023-03-21T03:58:03.231Z,34.10
2023-03-21T04:00:34.903Z,34.83
2023-03-21T04:03:01.787Z,36.03
2023-03-21T04:05:28.453Z,35.20
2023-03-21T04:07:55.211Z,34.40
2023-03-21T04:10:22.653Z,35.92
2023-03-21T04:12:49.719Z,35.40
2023-03-21T04:15:16.344Z,35.15
2023-03-21T04:17:42.924Z,35.40
2023-03-21T04:20:16.580Z,35.58
2023-03-21T04:22:48.610Z,35.25
2023-03-21T04:25:24.411Z,35.08
2023-03-21T04:27:55.681Z,35.13
2023-03-21T04:30:24.797Z,35.55
2023-03-21T04:32:53.944Z,35.00
2023-03-21T04:35:21.312Z,35.60
2023-03-21T04:37:48.292Z,36.95
2023-03-21T04:40:17.784Z,38.08
2023-03-21T04:42:45.742Z,37.40
2023-03-21T04:45:13.273Z,38.15
2023-03-21T04:47:41.623Z,37.35
2023-03-21T04:50:10.232Z,37.30
2023-03-21T04:52:37.095Z,36.92
2023-03-21T04:55:04.093Z,36.92
2023-03-21T04:57:31.033Z,39.28
2023-03-21T04:59:57.791Z,38.05
2023-03-21T05:02:24.385Z,37.97
2023-03-21T05:04:51.090Z,38.78
2023-03-21T05:07:17.683Z,38.60
2023-03-21T05:09:44.243Z,40.88
2023-03-21T05:12:10.999Z,39.85
2023-03-21T05:14:37.564Z,41.83
2023-03-21T05:17:05.145Z,40.10
2023-03-21T05:19:35.765Z,39.72
2023-03-21T05:22:05.604Z,40.17
2023-03-21T05:24:33.071Z,42.50
2023-03-21T05:27:02.032Z,40.13
2023-03-21T05:29:30.580Z,43.35
2023-03-21T05:31:58.833Z,41.67
2023-03-21T05:34:26.722Z,42.65
2023-03-21T05:36:54.053Z,42.58
2023-03-21T05:39:21.091Z,44.78
2023-03-21T05:42:14.076Z,42.50
2023-03-21T05:44:40.808Z,43.67
2023-03-21T05:47:08.254Z,42.65
2023-03-21T05:49:34.939Z,44.55
2023-03-21T05:52:01.602Z,45.30
2023-03-21T05:54:28.222Z,44.15
2023-03-21T05:56:54.947Z,45.00
2023-03-21T05:59:21.877Z,42.78
2023-03-21T06:01:48.421Z,43.30
2023-03-21T06:04:15.498Z,44.47
2023-03-21T06:06:42.147Z,40.20
2023-03-21T06:09:09.214Z,44.50
2023-03-21T06:11:37.894Z,46.15
2023-03-21T06:14:04.577Z,47.72
2023-03-21T06:16:31.152Z,47.90
2023-03-21T06:18:57.719Z,46.70
2023-03-21T06:21:26.716Z,48.35
2023-03-21T06:23:53.991Z,47.50
2023-03-21T06:26:22.901Z,46.90
2023-03-21T06:28:52.834Z,44.00
2023-03-21T06:31:22.398Z,43.15
2023-03-21T06:33:50.197Z,43.88
2023-03-21T06:36:17.199Z,41.42
2023-03-21T06:38:44.145Z,42.65
2023-03-21T06:41:10.723Z,42.20
2023-03-21T06:43:37.303Z,42.63
2023-03-21T06:46:04.117Z,39.88
2023-03-21T06:48:31.198Z,41.85
2023-03-21T06:50:58.072Z,41.38
2023-03-21T06:53:51.035Z,42.08
2023-03-21T06:56:17.585Z,41.40
2023-03-21T06:58:44.250Z,41.50
2023-03-21T07:01:10.933Z,42.00
2023-03-21T07:03:37.856Z,42.33
2023-03-21T07:06:13.499Z,39.20
2023-03-21T07:08:41.189Z,38.05
2023-03-21T07:11:08.551Z,36.90
2023-03-21T07:13:35.533Z,38.03
2023-03-21T07:16:02.354Z,37.03
2023-03-21T07:18:30.791Z,35.05
2023-03-21T07:20:57.643Z,34.83
2023-03-21T07:23:25.994Z,33.47
2023-03-21T07:25:53.260Z,33.97
2023-03-21T07:28:20.863Z,33.00
2023-03-21T07:30:55.890Z,31.75
2023-03-21T07:33:23.395Z,30.92
2023-03-21T07:35:51.270Z,29.90
2023-03-21T07:38:18.742Z,30.00
2023-03-21T07:40:47.063Z,28.98
2023-03-21T07:43:14.376Z,29.75
2023-03-21T07:45:42.577Z,28.02
2023-03-21T07:48:10.794Z,27.40
2023-03-21T07:50:37.479Z,27.05
2023-03-21T07:53:04.035Z,25.58
2023-03-21T07:55:31.974Z,26.15
2023-03-21T07:57:58.554Z,26.77
2023-03-21T08:00:25.275Z,25.88
2023-03-21T08:02:57.160Z,26.63
2023-03-21T08:05:30.439Z,26.08
2023-03-21T08:07:57.493Z,23.90
2023-03-21T08:10:24.628Z,22.83
2023-03-21T08:12:51.633Z,25.52
2023-03-21T08:15:18.617Z,25.98
2023-03-21T08:17:48.011Z,26.73
2023-03-21T08:20:18.147Z,25.90
2023-03-21T08:22:44.970Z,25.90
2023-03-21T08:25:14.805Z,23.85
2023-03-21T08:27:42.747Z,25.95
2023-03-21T08:30:14.108Z,26.20
2023-03-21T08:32:42.165Z,25.38
2023-03-21T08:35:11.049Z,25.23
2023-03-21T08:37:40.136Z,25.83
2023-03-21T08:40:11.405Z,24.52
2023-03-21T08:42:38.433Z,24.08
2023-03-21T08:45:06.113Z,22.52
2023-03-21T08:47:32.866Z,23.48
2023-03-21T08:49:59.919Z,24.15
2023-03-21T08:52:29.812Z,23.33
2023-03-21T08:54:56.397Z,22.55
2023-03-21T08:57:23.127Z,21.58
2023-03-21T08:59:49.813Z,22.02
2023-03-21T09:02:17.531Z,22.50
2023-03-21T09:04:44.919Z,22.17
2023-03-21T09:07:14.243Z,21.13
2023-03-21T09:09:41.772Z,20.63
2023-03-21T09:12:09.062Z,21.38
2023-03-21T09:14:35.964Z,22.45
2023-03-21T09:17:02.597Z,23.00
2023-03-21T09:19:30.044Z,22.88
2023-03-21T09:21:57.863Z,20.15
2023-03-21T09:24:24.584Z,19.48
2023-03-21T09:26:51.565Z,19.17
2023-03-21T09:29:23.305Z,18.45
2023-03-21T09:31:50.371Z,16.02
2023-03-21T09:34:17.101Z,16.00
2023-03-21T09:36:54.022Z,14.80
2023-03-21T09:39:20.852Z,14.35
2023-03-21T09:42:02.609Z,15.48
2023-03-21T09:44:37.854Z,15.35
2023-03-21T09:47:29.282Z,15.43
2023-03-21T09:50:13.728Z,15.50
2023-03-21T09:53:00.903Z,15.98
2023-03-21T09:55:31.571Z,14.05
2023-03-21T09:58:26.132Z,15.15
2023-03-21T10:01:01.105Z,12.35
2023-03-21T10:03:34.866Z,14.00
2023-03-21T10:06:10.009Z,14.90
2023-03-21T10:08:41.453Z,15.23
2023-03-21T10:11:18.948Z,14.48
2023-03-21T10:13:56.063Z,13.70
2023-03-21T10:16:37.663Z,13.88
2023-03-21T10:19:11.696Z,13.70
2023-03-21T10:22:03.426Z,11.68
2023-03-21T10:24:33.283Z,12.23
2023-03-21T10:27:01.244Z,11.40
2023-03-21T10:29:32.684Z,11.88
2023-03-21T10:32:00.193Z,11.18
2023-03-21T10:34:35.976Z,11.60
2023-03-21T10:37:04.436Z,11.48
2023-03-21T10:39:40.362Z,10.57
2023-03-21T10:42:13.287Z,10.45
2023-03-21T10:44:39.865Z,10.60
2023-03-21T10:47:09.020Z,9.68
2023-03-21T10:50:08.492Z,9.50
2023-03-21T10:52:30.159Z,10.40
2023-03-21T10:55:17.458Z,10.40
2023-03-21T10:57:46.027Z,10.68
2023-03-21T11:00:21.528Z,11.40
2023-03-21T11:02:50.530Z,12.20
2023-03-21T11:05:20.890Z,11.18
2023-03-21T11:07:47.940Z,10.90
2023-03-21T11:10:29.104Z,10.88
2023-03-21T11:12:57.583Z,9.85
2023-03-21T11:15:38.258Z,10.30
2023-03-21T11:18:39.774Z,9.88
2023-03-21T11:21:09.529Z,10.32
2023-03-21T11:23:42.343Z,10.90
2023-03-21T11:26:12.201Z,10.80
2023-03-21T11:28:41.812Z,9.95
2023-03-21T11:31:09.573Z,11.35
2023-03-21T11:33:45.854Z,10.93
2023-03-21T11:36:19.339Z,10.80
2023-03-21T11:38:54.110Z,11.25
2023-03-21T11:41:28.503Z,10.45
2023-03-21T11:43:57.516Z,10.32
2023-03-21T11:46:26.571Z,12.00
2023-03-21T11:48:55.426Z,12.10
2023-03-21T11:51:45.626Z,10.35
2023-03-21T11:54:26.105Z,10.43
2023-03-21T11:57:19.440Z,10.27
2023-03-21T12:00:01.213Z,10.45
2023-03-21T12:03:03.612Z,9.82
2023-03-21T12:05:41.390Z,10.27
2023-03-21T12:08:23.722Z,10.82
2023-03-21T12:11:15.433Z,10.20
2023-03-21T12:13:48.349Z,10.00
2023-03-21T12:16:41.280Z,10.05
2023-03-21T12:19:14.092Z,10.10
2023-03-21T12:21:48.177Z,10.70
2023-03-21T12:24:33.050Z,15.30
2023-03-21T12:27:11.743Z,12.48
2023-03-21T12:30:11.482Z,11.85
2023-03-21T12:32:46.181Z,16.52
2023-03-21T12:35:46.836Z,21.17
2023-03-21T12:38:51.245Z,16.00
2023-03-21T12:41:28.889Z,24.05
2023-03-21T12:44:02.783Z,12.85
2023-03-21T12:46:57.137Z,14.07
2023-03-21T12:49:49.052Z,12.98
2023-03-21T12:52:34.907Z,15.32
2023-03-21T12:55:20.263Z,15.43
2023-03-21T12:58:00.444Z,18.92
2023-03-21T13:00:41.286Z,16.52
2023-03-21T13:03:39.279Z,17.98
2023-03-21T13:06:16.191Z,17.45
2023-03-21T13:09:05.180Z,17.58
2023-03-21T13:11:32.928Z,19.38
2023-03-21T13:14:24.139Z,31.45
2023-03-21T13:17:02.242Z,22.48
2023-03-21T13:19:36.826Z,41.22
2023-03-21T13:22:11.321Z,25.20
2023-03-21T13:24:43.872Z,21.20
2023-03-21T13:27:32.166Z,26.63
2023-03-21T13:30:17.361Z,21.70
2023-03-21T13:32:46.611Z,23.73
2023-03-21T13:35:18.568Z,24.83
2023-03-21T13:37:56.068Z,24.15
2023-03-21T13:40:47.760Z,24.15
2023-03-21T13:43:40.848Z,23.23
2023-03-21T13:46:12.074Z,21.08
2023-03-21T13:49:01.186Z,19.33
2023-03-21T13:51:37.037Z,17.85
2023-03-21T13:54:07.758Z,18.15
2023-03-21T13:56:46.505Z,18.77
2023-03-21T13:59:37.263Z,18.52
2023-03-21T14:02:31.612Z,18.95
2023-03-21T14:05:06.623Z,17.55
2023-03-21T14:08:15.266Z,17.23
2023-03-21T14:10:49.068Z,17.38
2023-03-21T14:13:19.129Z,17.35
2023-03-21T14:16:06.621Z,19.98
2023-03-21T14:18:54.176Z,19.02
2023-03-21T14:21:31.118Z,16.15
2023-03-21T14:24:06.856Z,17.08
2023-03-21T14:26:41.144Z,16.40
2023-03-21T14:29:25.172Z,16.10
2023-03-21T14:31:54.786Z,14.30
2023-03-21T14:34:23.161Z,13.85
2023-03-21T14:36:57.728Z,15.52
2023-03-21T14:39:33.030Z,13.32
2023-03-21T14:42:07.979Z,14.18
2023-03-21T14:44:54.392Z,13.95
2023-03-21T14:47:24.128Z,14.07
2023-03-21T14:49:51.803Z,13.93
2023-03-21T14:55:57.217Z,15.32
2023-03-21T14:58:24.071Z,14.57
2023-03-21T15:00:51.291Z,15.95
2023-03-21T15:03:20.404Z,16.55
2023-03-21T15:05:47.133Z,15.43
2023-03-21T15:08:16.284Z,15.07
2023-03-21T15:11:06.293Z,15.98
2023-03-21T15:13:40.673Z,15.15
2023-03-21T15:16:08.513Z,16.05
2023-03-21T15:18:38.280Z,15.50
2023-03-21T15:21:10.355Z,19.00
2023-03-21T15:23:44.790Z,16.23
2023-03-21T15:26:20.631Z,17.48
2023-03-21T15:28:49.904Z,17.63
2023-03-21T15:31:28.176Z,18.35
2023-03-21T15:33:55.739Z,16.92
2023-03-21T15:36:32.098Z,17.40
2023-03-21T15:39:06.147Z,19.08
2023-03-21T15:41:33.128Z,19.63
2023-03-21T15:43:59.724Z,18.25
2023-03-21T15:46:44.747Z,18.45
2023-03-21T15:49:27.429Z,18.20
2023-03-21T15:52:16.054Z,18.58
2023-03-21T15:54:56.816Z,17.48
2023-03-21T15:57:33.188Z,18.33
2023-03-21T16:00:18.247Z,17.30
2023-03-21T16:02:45.598Z,17.23
2023-03-21T16:05:21.678Z,20.48
2023-03-21T16:07:48.761Z,17.50
2023-03-21T16:10:31.556Z,19.52
2023-03-21T16:12:58.829Z,18.50
2023-03-21T16:15:26.848Z,17.35
2023-03-21T16:17:59.652Z,15.65
2023-03-21T16:20:35.342Z,16.20
2023-03-21T16:23:01.957Z,16.48
2023-03-21T16:25:33.438Z,15.20
2023-03-21T16:28:00.151Z,15.05
2023-03-21T16:30:27.335Z,14.50
2023-03-21T16:32:54.117Z,15.20
2023-03-21T16:35:23.435Z,15.50
2023-03-21T16:37:50.428Z,18.75
2023-03-21T16:40:23.723Z,14.60
2023-03-21T16:42:50.918Z,14.80
2023-03-21T16:45:17.763Z,13.68
2023-03-21T16:47:45.414Z,13.13
2023-03-21T16:50:24.280Z,14.68
2023-03-21T16:52:50.930Z,16.63
2023-03-21T16:55:17.498Z,14.80
2023-03-21T16:57:45.414Z,21.27
2023-03-21T17:00:20.736Z,15.18
2023-03-21T17:02:48.012Z,17.00
2023-03-21T17:05:15.350Z,15.18
2023-03-21T17:07:44.092Z,13.77
2023-03-21T17:10:22.725Z,13.73
2023-03-21T17:12:49.825Z,14.25
2023-03-21T17:15:18.252Z,13.63
2023-03-21T17:17:45.406Z,14.90
2023-03-21T17:20:26.408Z,13.70
2023-03-21T17:22:53.188Z,14.65
2023-03-21T17:25:20.637Z,17.33
2023-03-21T17:27:48.170Z,16.60
2023-03-21T17:30:18.089Z,21.08
2023-03-21T17:32:44.832Z,18.05
2023-03-21T17:35:11.428Z,15.85
2023-03-21T17:37:38.886Z,15.05
2023-03-21T17:40:07.833Z,15.48
2023-03-21T17:42:34.461Z,15.82
2023-03-21T17:45:01.095Z,16.83
2023-03-21T17:47:30.870Z,17.52
2023-03-21T17:49:57.565Z,17.05
2023-03-21T17:52:24.804Z,16.83
2023-03-21T17:54:51.728Z,17.63
2023-03-21T17:57:18.779Z,17.33
2023-03-21T17:59:46.017Z,17.80
2023-03-21T18:02:12.842Z,18.58
2023-03-21T18:04:40.242Z,18.77
2023-03-21T18:07:18.468Z,18.17
2023-03-21T18:09:51.136Z,20.55
2023-03-21T18:12:17.789Z,18.05
2023-03-21T18:14:45.665Z,17.13
2023-03-21T18:17:12.403Z,16.73
2023-03-21T18:19:39.112Z,17.65
2023-03-21T18:22:06.124Z,17.35
2023-03-21T18:24:32.812Z,15.27
2023-03-21T18:26:59.540Z,17.67
2023-03-21T18:32:14.429Z,17.30
2023-03-21T18:34:41.779Z,15.13
2023-03-21T18:37:11.352Z,16.52
2023-03-21T18:39:39.434Z,16.13
2023-03-21T18:42:06.652Z,17.70
2023-03-21T18:44:38.860Z,17.25
2023-03-21T18:47:07.377Z,16.42
2023-03-21T18:50:10.367Z,16.15
2023-03-21T18:52:22.626Z,15.90
2023-03-21T18:54:49.654Z,15.80
2023-03-21T18:57:35.795Z,15.93
2023-03-21T19:00:16.983Z,17.27
2023-03-21T19:02:47.977Z,15.60
2023-03-21T19:05:17.566Z,15.50
2023-03-21T19:08:12.656Z,15.68
2023-03-21T19:10:39.545Z,15.00
2023-03-21T19:13:08.217Z,15.32
2023-03-21T19:15:35.121Z,27.80
2023-03-21T19:20:53.556Z,15.02
2023-03-21T19:23:22.747Z,13.77
2023-03-21T19:25:49.527Z,14.18
2023-03-21T19:28:16.309Z,13.82
2023-03-21T19:30:49.650Z,14.23
2023-03-21T19:33:17.357Z,15.65
2023-03-21T19:35:46.302Z,12.93
2023-03-21T19:38:14.321Z,15.32
2023-03-21T19:40:42.874Z,12.80
2023-03-21T19:43:31.264Z,11.85
2023-03-21T19:45:57.872Z,15.27
2023-03-21T19:48:27.963Z,13.25
2023-03-21T19:53:42.915Z,12.52
2023-03-21T19:56:20.760Z,12.20
2023-03-21T19:58:53.070Z,12.18
2023-03-21T20:01:19.944Z,12.50
2023-03-21T20:03:47.280Z,11.95
2023-03-21T20:06:13.999Z,18.08
2023-03-21T20:11:28.092Z,16.80
2023-03-21T20:13:55.413Z,10.98
2023-03-21T20:16:22.172Z,11.98
2023-03-21T20:18:48.878Z,10.80
2023-03-21T20:21:18.481Z,9.95
2023-03-21T20:23:50.837Z,10.80
2023-03-21T20:26:18.411Z,20.90
2023-03-21T20:29:01.120Z,10.68
2023-03-21T20:31:34.694Z,10.15
2023-03-21T20:34:02.120Z,10.57
2023-03-21T20:36:39.407Z,12.20
2023-03-21T20:39:07.257Z,11.70
2023-03-21T20:41:34.026Z,11.55
2023-03-21T20:46:48.382Z,10.77
2023-03-21T20:49:15.599Z,11.57
2023-03-21T20:54:30.421Z,11.70
2023-03-21T20:56:57.299Z,12.57
2023-03-21T20:59:27.673Z,11.20
2023-03-21T21:01:57.120Z,12.35
2023-03-21T21:04:44.333Z,15.20
2023-03-21T21:07:17.027Z,12.30
2023-03-21T21:09:44.812Z,12.90
2023-03-21T21:12:13.177Z,12.80
2023-03-21T21:14:41.474Z,12.60
2023-03-21T21:17:28.404Z,12.05
2023-03-21T21:19:55.409Z,16.30
2023-03-21T21:22:21.967Z,14.07
2023-03-21T21:24:48.533Z,15.02
2023-03-21T21:27:15.269Z,14.75
2023-03-21T21:29:43.488Z,14.73
2023-03-21T21:32:11.408Z,15.75
2023-03-21T21:34:38.228Z,15.15
2023-03-21T21:37:05.329Z,14.10
2023-03-21T21:39:37.854Z,14.07
2023-03-21T21:42:17.148Z,13.93
2023-03-21T21:44:45.100Z,14.23
2023-03-21T21:47:14.524Z,13.50
2023-03-21T21:49:42.726Z,13.85
2023-03-21T21:52:13.592Z,13.23
2023-03-21T21:54:45.482Z,13.85
2023-03-21T21:57:12.409Z,12.82
2023-03-21T22:02:23.800Z,14.13
2023-03-21T22:04:55.095Z,12.98
2023-03-21T22:07:27.080Z,13.75
2023-03-21T22:09:54.997Z,13.25
2023-03-21T22:12:22.968Z,13.75
2023-03-21T22:14:49.683Z,13.32
2023-03-21T22:17:18.072Z,12.55
2023-03-21T22:19:52.707Z,13.23
2023-03-21T22:22:27.601Z,11.68
2023-03-21T22:24:56.172Z,12.13
2023-03-21T22:27:23.447Z,12.30
2023-03-21T22:32:32.771Z,12.27
2023-03-21T22:34:59.320Z,12.55
2023-03-21T22:37:25.890Z,12.93
2023-03-21T22:39:52.519Z,12.48
2023-03-21T22:42:19.031Z,12.60
2023-03-21T22:44:45.666Z,13.45
2023-03-21T22:47:12.387Z,13.57
2023-03-21T22:49:39.225Z,13.00
2023-03-21T22:52:06.351Z,13.35
2023-03-21T22:54:32.951Z,14.32
2023-03-21T22:56:59.572Z,12.68
2023-03-21T22:59:26.828Z,12.82
2023-03-21T23:01:53.900Z,12.57
2023-03-21T23:04:20.745Z,13.05
2023-03-21T23:06:47.416Z,13.57
2023-03-21T23:09:14.374Z,12.82
2023-03-21T23:11:40.982Z,13.20
2023-03-21T23:14:08.974Z,13.40
2023-03-21T23:16:38.063Z,13.80
2023-03-21T23:19:04.935Z,12.68
2023-03-21T23:21:34.421Z,12.80
2023-03-21T23:24:01.059Z,13.40
2023-03-21T23:26:28.501Z,13.52
2023-03-21T23:28:55.108Z,12.38
2023-03-21T23:31:25.233Z,13.13
2023-03-21T23:33:52.666Z,13.00
2023-03-21T23:36:20.874Z,13.50
2023-03-21T23:38:47.475Z,13.57
2023-03-21T23:41:17.103Z,13.77
2023-03-21T23:43:44.189Z,13.95
2023-03-21T23:46:12.761Z,14.57
2023-03-21T23:48:40.441Z,13.48
2023-03-21T23:51:08.196Z,13.88
2023-03-21T23:53:34.969Z,14.32
2023-03-21T23:56:01.701Z,14.15
2023-03-21T23:58:29.569Z,13.45
